createdAt,value
2018-12-24T00:00:18.078Z,-3.20
2018-12-24T00:02:46.766Z,-3.30
2018-12-24T00:05:15.365Z,-3.30
2018-12-24T00:07:44.132Z,-3.30
2018-12-24T00:10:12.467Z,-3.30
2018-12-24T00:12:41.232Z,-3.30
2018-12-24T00:15:09.945Z,-3.30
2018-12-24T00:17:38.369Z,-3.20
2018-12-24T00:20:06.687Z,-3.30
2018-12-24T00:22:35.320Z,-3.30
2018-12-24T00:25:03.906Z,-3.30
2018-12-24T00:27:32.328Z,-3.30
2018-12-24T00:30:01.071Z,-3.30
2018-12-24T00:32:29.356Z,-3.30
2018-12-24T00:34:58.069Z,-3.30
2018-12-24T00:37:26.974Z,-3.30
2018-12-24T00:39:55.351Z,-3.30
2018-12-24T00:42:24.009Z,-3.30
2018-12-24T00:44:52.866Z,-3.30
2018-12-24T00:47:21.552Z,-3.30
2018-12-24T00:49:49.881Z,-3.30
2018-12-24T00:52:18.616Z,-3.30
2018-12-24T00:54:47.185Z,-3.30
2018-12-24T00:57:15.792Z,-3.30
2018-12-24T00:59:44.668Z,-3.30
2018-12-24T01:02:13.031Z,-3.30
2018-12-24T01:04:41.678Z,-3.40
2018-12-24T01:07:10.418Z,-3.30
2018-12-24T01:09:38.914Z,-3.30
2018-12-24T01:12:07.485Z,-3.30
2018-12-24T01:14:36.166Z,-3.30
2018-12-24T01:17:04.628Z,-3.30
2018-12-24T01:19:33.125Z,-3.30
2018-12-24T01:22:02.218Z,-3.30
2018-12-24T01:24:31.152Z,-3.30
2018-12-24T01:26:59.524Z,-3.30
2018-12-24T01:29:28.117Z,-3.40
2018-12-24T01:31:56.470Z,-3.40
2018-12-24T01:34:24.817Z,-3.40
2018-12-24T01:36:53.550Z,-3.40
2018-12-24T01:39:21.858Z,-3.40
2018-12-24T01:41:50.328Z,-3.40
2018-12-24T01:44:19.021Z,-3.40
2018-12-24T01:46:47.640Z,-3.40
2018-12-24T01:49:16.020Z,-3.40
2018-12-24T01:51:44.766Z,-3.40
2018-12-24T01:54:13.314Z,-3.40
2018-12-24T01:56:41.634Z,-3.40
2018-12-24T01:59:10.340Z,-3.40
2018-12-24T02:01:38.690Z,-3.40
2018-12-24T02:04:07.029Z,-3.40
2018-12-24T02:06:35.779Z,-3.40
2018-12-24T02:09:05.966Z,-3.40
2018-12-24T02:11:35.254Z,-3.40
2018-12-24T02:14:03.972Z,-3.40
2018-12-24T02:16:32.319Z,-3.40
2018-12-24T02:19:00.680Z,-3.40
2018-12-24T02:21:29.413Z,-3.40
2018-12-24T02:23:57.832Z,-3.40
2018-12-24T02:26:26.399Z,-3.30
2018-12-24T02:28:55.034Z,-3.30
2018-12-24T02:31:23.412Z,-3.40
2018-12-24T02:33:51.874Z,-3.30
2018-12-24T02:36:20.467Z,-3.40
2018-12-24T02:38:48.767Z,-3.40
2018-12-24T02:41:17.065Z,-3.40
2018-12-24T02:43:45.741Z,-3.40
2018-12-24T02:46:14.318Z,-3.40
2018-12-24T02:48:42.789Z,-3.40
2018-12-24T02:51:11.347Z,-3.40
2018-12-24T02:53:39.997Z,-3.40
2018-12-24T02:56:08.393Z,-3.40
2018-12-24T02:58:37.850Z,-3.40
2018-12-24T03:01:06.230Z,-3.40
2018-12-24T03:03:34.578Z,-3.40
2018-12-24T03:06:03.469Z,-3.40
2018-12-24T03:08:31.978Z,-3.30
2018-12-24T03:11:00.393Z,-3.40
2018-12-24T03:13:28.819Z,-3.40
2018-12-24T03:15:57.500Z,-3.40
2018-12-24T03:18:26.408Z,-3.40
2018-12-24T03:20:55.096Z,-3.40
2018-12-24T03:23:23.830Z,-3.40
2018-12-24T03:25:52.291Z,-3.30
2018-12-24T03:28:21.150Z,-3.40
2018-12-24T03:30:49.683Z,-3.30
2018-12-24T03:33:18.034Z,-3.30
2018-12-24T03:35:46.893Z,-3.30
2018-12-24T03:38:15.753Z,-3.30
2018-12-24T03:40:44.265Z,-3.30
2018-12-24T03:43:13.226Z,-3.30
2018-12-24T03:45:41.380Z,-3.30
2018-12-24T03:48:09.881Z,-3.30
2018-12-24T03:50:38.698Z,-3.30
2018-12-24T03:53:07.330Z,-3.20
2018-12-24T03:55:35.760Z,-3.30
2018-12-24T03:58:04.446Z,-3.30
2018-12-24T04:00:33.095Z,-3.30
2018-12-24T04:03:01.720Z,-3.30
2018-12-24T04:05:30.458Z,-3.20
2018-12-24T04:07:58.807Z,-3.20
2018-12-24T04:10:27.311Z,-3.20
2018-12-24T04:12:56.139Z,-3.20
2018-12-24T04:15:24.446Z,-3.20
2018-12-24T04:17:53.067Z,-3.20
2018-12-24T04:20:21.991Z,-3.20
2018-12-24T04:22:50.395Z,-3.20
2018-12-24T04:25:18.937Z,-3.20
2018-12-24T04:27:47.600Z,-3.20
2018-12-24T04:30:16.093Z,-3.20
2018-12-24T04:32:44.452Z,-3.20
2018-12-24T04:35:13.340Z,-3.10
2018-12-24T04:37:41.701Z,-3.10
2018-12-24T04:40:10.039Z,-3.10
2018-12-24T04:42:38.619Z,-3.20
2018-12-24T04:45:06.996Z,-3.20
2018-12-24T04:47:35.375Z,-3.20
2018-12-24T04:50:04.365Z,-3.20
2018-12-24T04:52:32.747Z,-3.20
2018-12-24T04:55:01.376Z,-3.20
2018-12-24T04:57:30.092Z,-3.20
2018-12-24T04:59:58.438Z,-3.20
2018-12-24T05:02:26.975Z,-3.20
2018-12-24T05:04:55.861Z,-3.20
2018-12-24T05:07:24.436Z,-3.20
2018-12-24T05:09:53.229Z,-3.20
2018-12-24T05:12:21.975Z,-3.20
2018-12-24T05:14:50.304Z,-3.20
2018-12-24T05:17:18.636Z,-3.30
2018-12-24T05:19:47.355Z,-3.30
2018-12-24T05:22:16.026Z,-3.30
2018-12-24T05:24:44.675Z,-3.30
2018-12-24T05:27:13.716Z,-3.30
2018-12-24T05:29:42.055Z,-3.30
2018-12-24T05:32:10.353Z,-3.20
2018-12-24T05:34:39.431Z,-3.20
2018-12-24T05:37:07.840Z,-3.20
2018-12-24T05:39:36.368Z,-3.20
2018-12-24T05:42:05.263Z,-3.20
2018-12-24T05:44:33.633Z,-3.20
2018-12-24T05:47:01.969Z,-3.20
2018-12-24T05:49:30.973Z,-3.20
2018-12-24T05:51:59.646Z,-3.10
2018-12-24T05:54:27.989Z,-3.20
2018-12-24T05:56:57.012Z,-3.10
2018-12-24T05:59:25.433Z,-3.10
2018-12-24T06:01:54.039Z,-3.10
2018-12-24T06:04:22.758Z,-3.10
2018-12-24T06:06:51.082Z,-3.00
2018-12-24T06:09:19.449Z,-3.00
2018-12-24T06:11:48.203Z,-3.00
2018-12-24T06:14:16.521Z,-2.90
2018-12-24T06:16:44.976Z,-2.90
2018-12-24T06:19:14.151Z,-2.90
2018-12-24T06:21:42.450Z,-2.90
2018-12-24T06:24:10.884Z,-2.90
2018-12-24T06:26:39.697Z,-2.90
2018-12-24T06:29:08.059Z,-2.90
2018-12-24T06:31:36.632Z,-2.90
2018-12-24T06:34:05.381Z,-2.90
2018-12-24T06:36:34.261Z,-2.90
2018-12-24T06:39:02.770Z,-2.90
2018-12-24T06:41:31.349Z,-2.90
2018-12-24T06:44:06.664Z,-2.90
2018-12-24T06:46:28.489Z,-2.90
2018-12-24T06:48:57.080Z,-2.90
2018-12-24T06:51:25.396Z,-2.90
2018-12-24T06:53:53.797Z,-2.90
2018-12-24T06:56:22.655Z,-2.90
2018-12-24T06:58:51.005Z,-2.90
2018-12-24T07:01:19.383Z,-2.80
2018-12-24T07:03:48.429Z,-2.80
2018-12-24T07:06:17.317Z,-2.80
2018-12-24T07:08:45.800Z,-2.80
2018-12-24T07:11:14.346Z,-2.80
2018-12-24T07:13:42.638Z,-2.80
2018-12-24T07:16:11.018Z,-2.80
2018-12-24T07:18:39.924Z,-2.80
2018-12-24T07:21:08.852Z,-2.80
2018-12-24T07:23:37.332Z,-2.80
2018-12-24T07:26:06.143Z,-2.80
2018-12-24T07:28:35.441Z,-2.80
2018-12-24T07:31:03.782Z,-2.90
2018-12-24T07:33:32.563Z,-2.90
2018-12-24T07:36:01.045Z,-2.90
2018-12-24T07:38:29.648Z,-2.90
2018-12-24T07:40:58.396Z,-2.90
2018-12-24T07:43:26.748Z,-2.90
2018-12-24T07:45:55.082Z,-2.90
2018-12-24T07:48:23.480Z,-3.00
2018-12-24T07:50:51.978Z,-3.00
2018-12-24T07:53:21.379Z,-3.00
2018-12-24T07:55:50.441Z,-3.10
2018-12-24T07:58:20.718Z,-3.10
2018-12-24T08:00:49.206Z,-3.20
2018-12-24T08:03:18.295Z,-3.20
2018-12-24T08:05:47.297Z,-3.30
2018-12-24T08:08:16.108Z,-3.30
2018-12-24T08:10:45.711Z,-3.40
2018-12-24T08:13:14.222Z,-3.40
2018-12-24T08:15:43.171Z,-3.50
2018-12-24T08:18:12.351Z,-3.60
2018-12-24T08:20:42.085Z,-3.70
2018-12-24T08:23:10.818Z,-3.80
2018-12-24T08:25:39.942Z,-3.90
2018-12-24T08:28:08.750Z,-4.00
2018-12-24T08:30:37.627Z,-4.10
2018-12-24T08:33:07.082Z,-4.20
2018-12-24T08:35:36.306Z,-4.30
2018-12-24T08:38:06.436Z,-4.40
2018-12-24T08:40:35.677Z,-4.50
2018-12-24T08:43:04.842Z,-4.50
2018-12-24T08:45:34.105Z,-4.60
2018-12-24T08:48:03.677Z,-4.60
2018-12-24T08:50:32.627Z,-4.60
2018-12-24T08:53:01.006Z,-4.70
2018-12-24T08:55:29.502Z,-4.80
2018-12-24T08:57:58.066Z,-4.80
2018-12-24T09:00:26.383Z,-4.80
2018-12-24T09:02:55.117Z,-4.90
2018-12-24T09:05:23.467Z,-4.90
2018-12-24T09:07:51.884Z,-4.90
2018-12-24T09:10:20.877Z,-4.90
2018-12-24T09:12:49.375Z,-5.00
2018-12-24T09:15:17.915Z,-4.90
2018-12-24T09:17:46.510Z,-4.90
2018-12-24T09:20:14.898Z,-4.60
2018-12-24T09:22:43.584Z,-4.10
2018-12-24T09:25:12.228Z,-3.60
2018-12-24T09:27:41.201Z,-3.20
2018-12-24T09:30:13.091Z,-2.50
2018-12-24T09:32:41.404Z,-1.80
2018-12-24T09:35:09.714Z,-1.20
2018-12-24T09:37:44.994Z,-0.80
2018-12-24T09:40:14.949Z,-0.70
2018-12-24T09:42:43.263Z,-0.60
2018-12-24T09:45:12.293Z,-1.60
2018-12-24T09:47:40.609Z,-1.90
2018-12-24T09:50:08.937Z,-1.60
2018-12-24T09:52:37.589Z,-1.90
2018-12-24T09:55:06.060Z,-2.40
2018-12-24T09:57:35.129Z,-2.30
2018-12-24T10:00:04.331Z,-2.00
2018-12-24T10:02:39.542Z,-2.20
2018-12-24T10:05:08.838Z,-2.20
2018-12-24T10:07:40.417Z,-2.20
2018-12-24T10:10:13.442Z,-2.50
2018-12-24T10:12:41.940Z,-2.90
2018-12-24T10:15:10.336Z,-3.10
2018-12-24T10:17:39.328Z,-3.10
2018-12-24T10:20:07.890Z,-3.00
2018-12-24T10:22:36.390Z,-3.20
2018-12-24T10:25:05.561Z,-3.30
2018-12-24T10:27:34.333Z,-3.30
2018-12-24T10:30:02.642Z,-3.30
2018-12-24T10:32:31.280Z,-3.40
2018-12-24T10:34:59.646Z,-3.60
2018-12-24T10:37:28.191Z,-3.60
2018-12-24T10:40:00.576Z,-3.70
2018-12-24T10:42:28.882Z,-3.90
2018-12-24T10:44:57.262Z,-4.20
2018-12-24T10:47:25.755Z,-4.40
2018-12-24T10:49:54.125Z,-4.60
2018-12-24T10:52:22.472Z,-4.60
2018-12-24T10:54:51.442Z,-4.70
2018-12-24T10:57:19.806Z,-4.70
2018-12-24T10:59:48.336Z,-4.90
2018-12-24T11:02:17.191Z,-4.90
2018-12-24T11:04:45.819Z,-4.90
2018-12-24T11:07:14.566Z,-4.90
2018-12-24T11:09:43.249Z,-4.90
2018-12-24T11:12:11.691Z,-4.90
2018-12-24T11:14:40.612Z,-5.00
2018-12-24T11:17:09.600Z,-5.00
2018-12-24T11:19:38.019Z,-5.10
2018-12-24T11:22:06.359Z,-5.10
2018-12-24T11:24:34.903Z,-5.10
2018-12-24T11:27:03.349Z,-5.10
2018-12-24T11:29:31.709Z,-5.20
2018-12-24T11:32:01.390Z,-5.20
2018-12-24T11:34:28.907Z,-5.10
2018-12-24T11:36:57.258Z,-5.10
2018-12-24T11:39:26.086Z,-5.10
2018-12-24T11:41:54.435Z,-5.10
2018-12-24T11:44:22.762Z,-5.10
2018-12-24T11:46:51.838Z,-5.10
2018-12-24T11:49:20.678Z,-5.00
2018-12-24T11:51:49.350Z,-5.00
2018-12-24T11:54:18.195Z,-5.10
2018-12-24T11:56:46.838Z,-5.00
2018-12-24T11:59:15.295Z,-5.00
2018-12-24T12:01:44.091Z,-5.10
2018-12-24T12:04:12.626Z,-5.20
2018-12-24T12:06:41.048Z,-5.20
2018-12-24T12:09:09.700Z,-5.20
2018-12-24T12:11:38.212Z,-5.20
2018-12-24T12:14:06.749Z,-5.20
2018-12-24T12:16:35.581Z,-5.30
2018-12-24T12:19:04.122Z,-5.30
2018-12-24T12:21:32.498Z,-5.30
2018-12-24T12:24:01.327Z,-5.30
2018-12-24T12:26:30.427Z,-5.30
2018-12-24T12:28:58.565Z,-5.40
2018-12-24T12:31:27.236Z,-5.40
2018-12-24T12:33:55.581Z,-5.40
2018-12-24T12:36:24.137Z,-5.50
2018-12-24T12:38:53.129Z,-5.50
2018-12-24T12:41:21.477Z,-5.50
2018-12-24T12:43:50.073Z,-5.50
2018-12-24T12:46:18.734Z,-5.60
2018-12-24T12:48:47.111Z,-5.60
2018-12-24T12:51:15.547Z,-5.60
2018-12-24T12:53:44.470Z,-5.60
2018-12-24T12:56:12.833Z,-5.60
2018-12-24T12:58:41.450Z,-5.60
2018-12-24T13:01:09.918Z,-5.60
2018-12-24T13:03:38.614Z,-5.60
2018-12-24T13:06:06.956Z,-5.70
2018-12-24T13:08:35.818Z,-5.70
2018-12-24T13:11:04.138Z,-5.70
2018-12-24T13:13:36.797Z,-5.70
2018-12-24T13:16:01.099Z,-5.70
2018-12-24T13:18:30.082Z,-5.70
2018-12-24T13:20:58.810Z,-5.80
2018-12-24T13:23:27.501Z,-5.80
2018-12-24T13:25:55.829Z,-5.80
2018-12-24T13:28:24.310Z,-5.90
2018-12-24T13:30:52.908Z,-5.90
2018-12-24T13:33:21.333Z,-6.00
2018-12-24T13:35:49.678Z,-6.00
2018-12-24T13:38:18.778Z,-6.00
2018-12-24T13:40:47.178Z,-6.00
2018-12-24T13:43:15.763Z,-5.90
2018-12-24T13:45:44.547Z,-6.00
2018-12-24T13:48:12.891Z,-6.10
2018-12-24T13:50:41.403Z,-6.10
2018-12-24T13:53:10.151Z,-6.10
2018-12-24T13:55:38.483Z,-6.10
2018-12-24T13:58:06.871Z,-6.10
2018-12-24T14:00:35.576Z,-6.20
2018-12-24T14:03:03.880Z,-6.20
2018-12-24T14:05:32.270Z,-6.20
2018-12-24T14:08:01.173Z,-6.20
2018-12-24T14:10:29.626Z,-6.20
2018-12-24T14:12:57.947Z,-6.20
2018-12-24T14:15:26.920Z,-6.20
2018-12-24T14:17:55.411Z,-6.20
2018-12-24T14:20:23.783Z,-6.30
2018-12-24T14:22:52.518Z,-6.30
2018-12-24T14:25:20.934Z,-6.30
2018-12-24T14:27:49.325Z,-6.30
2018-12-24T14:30:18.279Z,-6.40
2018-12-24T14:32:46.759Z,-6.40
2018-12-24T14:35:15.133Z,-6.40
2018-12-24T14:37:43.706Z,-6.40
2018-12-24T14:40:12.156Z,-6.40
2018-12-24T14:42:40.612Z,-6.50
2018-12-24T14:45:09.793Z,-6.50
2018-12-24T14:47:38.530Z,-6.50
2018-12-24T14:50:08.198Z,-6.50
2018-12-24T14:52:36.888Z,-6.50
2018-12-24T14:55:05.373Z,-6.50
2018-12-24T14:57:34.381Z,-6.50
2018-12-24T15:00:03.106Z,-6.50
2018-12-24T15:02:31.445Z,-6.50
2018-12-24T15:05:00.017Z,-6.50
2018-12-24T15:07:28.996Z,-6.50
2018-12-24T15:09:57.634Z,-6.50
2018-12-24T15:12:27.682Z,-6.50
2018-12-24T15:14:56.438Z,-6.50
2018-12-24T15:17:24.963Z,-6.50
2018-12-24T15:19:53.481Z,-6.50
2018-12-24T15:22:21.957Z,-6.50
2018-12-24T15:24:50.712Z,-6.50
2018-12-24T15:27:19.276Z,-6.50
2018-12-24T15:29:48.082Z,-6.50
2018-12-24T15:32:16.745Z,-6.50
2018-12-24T15:34:45.073Z,-6.50
2018-12-24T15:37:13.679Z,-6.50
2018-12-24T15:39:42.162Z,-6.50
2018-12-24T15:42:10.598Z,-6.50
2018-12-24T15:44:39.574Z,-6.50
2018-12-24T15:47:07.906Z,-6.60
2018-12-24T15:49:36.634Z,-6.50
2018-12-24T15:52:05.499Z,-6.50
2018-12-24T15:54:33.839Z,-6.60
2018-12-24T15:57:02.152Z,-6.60
2018-12-24T15:59:31.373Z,-6.60
2018-12-24T16:01:59.930Z,-6.60
2018-12-24T16:04:28.435Z,-6.60
2018-12-24T16:06:57.277Z,-6.70
2018-12-24T16:09:25.748Z,-6.60
2018-12-24T16:11:54.088Z,-6.60
2018-12-24T16:14:22.722Z,-6.60
2018-12-24T16:16:51.359Z,-6.50
2018-12-24T16:19:19.646Z,-6.50
2018-12-24T16:21:48.168Z,-6.50
2018-12-24T16:24:16.687Z,-6.50
2018-12-24T16:26:45.010Z,-6.40
2018-12-24T16:29:14.057Z,-6.40
2018-12-24T16:31:42.390Z,-6.40
2018-12-24T16:34:10.779Z,-6.40
2018-12-24T16:36:39.358Z,-6.30
2018-12-24T16:39:07.874Z,-6.40
2018-12-24T16:41:36.248Z,-6.40
2018-12-24T16:44:05.397Z,-6.40
2018-12-24T16:46:34.105Z,-6.30
2018-12-24T16:49:02.448Z,-6.30
2018-12-24T16:51:30.825Z,-6.30
2018-12-24T16:53:59.531Z,-6.30
2018-12-24T16:56:27.996Z,-6.30
2018-12-24T16:58:56.339Z,-6.20
2018-12-24T17:01:25.221Z,-6.20
2018-12-24T17:03:53.802Z,-6.20
2018-12-24T17:06:22.277Z,-6.20
2018-12-24T17:08:51.150Z,-6.20
2018-12-24T17:11:19.475Z,-6.20
2018-12-24T17:13:47.921Z,-6.20
2018-12-24T17:16:16.462Z,-6.10
2018-12-24T17:18:45.289Z,-6.10
2018-12-24T17:21:13.909Z,-6.10
2018-12-24T17:23:42.514Z,-6.00
2018-12-24T17:26:11.054Z,-6.00
2018-12-24T17:28:39.360Z,-6.00
2018-12-24T17:31:08.102Z,-5.90
2018-12-24T17:33:36.789Z,-5.90
2018-12-24T17:36:05.180Z,-5.80
2018-12-24T17:38:34.018Z,-5.80
2018-12-24T17:41:02.575Z,-5.80
2018-12-24T17:43:31.190Z,-5.80
2018-12-24T17:45:59.907Z,-5.70
2018-12-24T17:48:28.285Z,-5.70
2018-12-24T17:50:57.875Z,-5.70
2018-12-24T17:53:26.884Z,-5.60
2018-12-24T17:55:55.513Z,-5.60
2018-12-24T17:58:24.118Z,-5.50
2018-12-24T18:00:53.242Z,-5.40
2018-12-24T18:03:21.903Z,-5.40
2018-12-24T18:05:50.599Z,-5.40
2018-12-24T18:08:19.220Z,-5.30
2018-12-24T18:10:47.674Z,-5.30
2018-12-24T18:13:16.024Z,-5.20
2018-12-24T18:15:44.738Z,-5.20
2018-12-24T18:18:13.114Z,-5.20
2018-12-24T18:20:41.736Z,-5.20
2018-12-24T18:23:10.367Z,-5.20
2018-12-24T18:25:38.882Z,-5.20
2018-12-24T18:28:07.328Z,-5.20
2018-12-24T18:30:36.233Z,-5.20
2018-12-24T18:33:04.914Z,-5.20
2018-12-24T18:35:33.236Z,-5.20
2018-12-24T18:38:01.946Z,-5.10
2018-12-24T18:40:30.355Z,-5.10
2018-12-24T18:42:58.746Z,-5.10
2018-12-24T18:45:27.294Z,-5.10
2018-12-24T18:47:55.690Z,-5.10
2018-12-24T18:50:24.657Z,-5.10
2018-12-24T18:52:53.472Z,-5.00
2018-12-24T18:55:22.143Z,-5.00
2018-12-24T18:57:50.534Z,-4.90
2018-12-24T19:00:19.525Z,-4.90
2018-12-24T19:02:48.524Z,-4.90
2018-12-24T19:05:17.099Z,-4.90
2018-12-24T19:07:49.468Z,-4.90
2018-12-24T19:10:19.143Z,-4.90
2018-12-24T19:12:48.170Z,-4.90
2018-12-24T19:15:17.971Z,-4.90
2018-12-24T19:17:48.547Z,-4.90
2018-12-24T19:20:16.942Z,-4.90
2018-12-24T19:22:45.572Z,-4.90
2018-12-24T19:25:15.281Z,-4.80
2018-12-24T19:27:43.966Z,-4.80
2018-12-24T19:30:12.963Z,-4.80
2018-12-24T19:32:41.921Z,-4.80
2018-12-24T19:35:10.630Z,-4.80
2018-12-24T19:37:39.480Z,-4.80
2018-12-24T19:40:08.341Z,-4.70
2018-12-24T19:42:36.704Z,-4.80
2018-12-24T19:45:05.950Z,-4.70
2018-12-24T19:47:34.339Z,-4.70
2018-12-24T19:50:02.745Z,-4.70
2018-12-24T19:52:32.351Z,-4.70
2018-12-24T19:55:00.675Z,-4.60
2018-12-24T19:57:29.057Z,-4.60
2018-12-24T19:59:57.637Z,-4.50
2018-12-24T20:02:25.977Z,-4.50
2018-12-24T20:04:54.853Z,-4.50
2018-12-24T20:07:23.719Z,-4.50
2018-12-24T20:09:52.200Z,-4.50
2018-12-24T20:12:20.886Z,-4.50
2018-12-24T20:14:50.059Z,-4.50
2018-12-24T20:17:18.557Z,-4.50
2018-12-24T20:19:47.271Z,-4.40
2018-12-24T20:22:15.984Z,-4.40
2018-12-24T20:24:45.141Z,-4.40
2018-12-24T20:27:13.479Z,-4.30
2018-12-24T20:29:42.310Z,-4.30
2018-12-24T20:32:10.902Z,-4.30
2018-12-24T20:34:39.362Z,-4.30
2018-12-24T20:37:09.533Z,-4.20
2018-12-24T20:39:37.673Z,-4.20
2018-12-24T20:42:06.190Z,-4.10
2018-12-24T20:44:35.654Z,-4.10
2018-12-24T20:47:04.131Z,-4.10
2018-12-24T20:49:32.547Z,-4.00
2018-12-24T20:52:01.253Z,-3.90
2018-12-24T20:54:29.664Z,-3.80
2018-12-24T20:56:58.159Z,-3.80
2018-12-24T20:59:27.028Z,-3.80
2018-12-24T21:01:55.391Z,-3.70
2018-12-24T21:04:24.218Z,-3.70
2018-12-24T21:06:53.201Z,-3.70
2018-12-24T21:09:21.789Z,-3.70
2018-12-24T21:11:50.172Z,-3.60
2018-12-24T21:14:18.823Z,-3.60
2018-12-24T21:16:47.173Z,-3.60
2018-12-24T21:19:15.520Z,-3.60
2018-12-24T21:21:44.389Z,-3.60
2018-12-24T21:24:12.899Z,-3.70
2018-12-24T21:26:41.476Z,-3.70
2018-12-24T21:29:09.989Z,-3.70
2018-12-24T21:31:38.371Z,-3.70
2018-12-24T21:34:06.706Z,-3.60
2018-12-24T21:36:35.438Z,-3.60
2018-12-24T21:39:04.404Z,-3.50
2018-12-24T21:41:32.948Z,-3.40
2018-12-24T21:44:01.464Z,-3.30
2018-12-24T21:46:30.001Z,-3.30
2018-12-24T21:48:58.358Z,-3.20
2018-12-24T21:51:27.071Z,-3.20
2018-12-24T21:53:55.502Z,-3.20
2018-12-24T21:56:23.792Z,-3.20
2018-12-24T21:58:52.366Z,-3.10
2018-12-24T22:01:20.724Z,-3.10
2018-12-24T22:03:49.093Z,-3.00
2018-12-24T22:06:17.950Z,-3.00
2018-12-24T22:08:46.624Z,-3.00
2018-12-24T22:11:15.013Z,-2.90
2018-12-24T22:13:43.866Z,-2.90
2018-12-24T22:16:12.380Z,-2.80
2018-12-24T22:18:40.757Z,-2.80
2018-12-24T22:21:09.302Z,-2.70
2018-12-24T22:23:37.897Z,-2.70
2018-12-24T22:26:06.464Z,-2.60
2018-12-24T22:28:35.063Z,-2.60
2018-12-24T22:31:03.498Z,-2.50
2018-12-24T22:33:31.905Z,-2.50
2018-12-24T22:36:00.938Z,-2.40
2018-12-24T22:38:29.526Z,-2.40
2018-12-24T22:40:57.895Z,-2.30
2018-12-24T22:43:26.688Z,-2.30
2018-12-24T22:45:55.015Z,-2.20
2018-12-24T22:48:23.429Z,-2.10
2018-12-24T22:50:52.125Z,-2.20
2018-12-24T22:53:20.504Z,-2.20
2018-12-24T22:55:48.879Z,-2.10
2018-12-24T22:58:17.564Z,-2.10
2018-12-24T23:00:47.747Z,-2.10
2018-12-24T23:03:16.573Z,-2.10
2018-12-24T23:05:45.325Z,-2.00
2018-12-24T23:08:13.799Z,-2.00
2018-12-24T23:10:42.177Z,-1.90
2018-12-24T23:13:11.208Z,-1.90
2018-12-24T23:15:39.585Z,-1.90
2018-12-24T23:18:08.179Z,-1.80
2018-12-24T23:20:36.826Z,-1.70
2018-12-24T23:23:05.148Z,-1.70
2018-12-24T23:25:33.558Z,-1.60
2018-12-24T23:28:02.250Z,-1.60
2018-12-24T23:30:30.774Z,-1.60
2018-12-24T23:32:59.115Z,-1.50
2018-12-24T23:35:27.824Z,-1.50
2018-12-24T23:37:56.385Z,-1.50
2018-12-24T23:40:24.748Z,-1.40
2018-12-24T23:42:53.447Z,-1.40
2018-12-24T23:45:21.769Z,-1.40
2018-12-24T23:47:50.106Z,-1.40
2018-12-24T23:50:19.066Z,-1.40
2018-12-24T23:52:47.631Z,-1.40
2018-12-24T23:55:16.038Z,-1.30
2018-12-24T23:57:44.746Z,-1.30
